Flight Track Log - Related Links

Times and Time Zones

All times are in EDT time to prevent confusion due to time zone crossing. See the QLK379D flight status page for this flight to view local times or setup timezone preferences in your user account.

Time Position Orientation Groundspeed Altitude Reporting Facility
EDT Latitude Longitude Course Direction KTS MPH feet Rate Location/Type
Sat 02:41:13 AM -25.3691 152.8378 352° North 11,300  Level Aus ATC (Calculated)
Sat 02:41:41 AM -25.3200 152.8303 186° South 118 136 3,300 -5,206 Descending Aus ATC (RADAR)
Sat 02:42:21 AM -25.3717 152.8243 186° South 214 246 5,400 3,000 Climbing Aus ATC (RADAR)
Sat 02:42:51 AM -25.3986 152.8099 206° Southwest 214 246 6,800 2,677 Climbing Aus ATC (RADAR)
Sat 02:43:26 AM -25.4296 152.7855 215° Southwest 226 260 8,300 2,600 Climbing Aus ATC (RADAR)
Sat 02:44:21 AM -25.4757 152.7460 218° Southwest 226 260 10,700 2,550 Climbing Aus ATC (RADAR)
Sat 02:44:46 AM -25.4973 152.7279 217° Southwest 231 266 11,700 2,200 Climbing Aus ATC (RADAR)
Sat 02:45:21 AM -25.5308 152.7070 209° Southwest 241 277 12,900 2,000 Climbing Aus ATC (RADAR)
Sat 02:46:01 AM -25.5768 152.7092 178° South 255 293 14,200 1,680 Climbing Aus ATC (RADAR)
Sat 02:46:36 AM -25.6181 152.7130 175° South 258 297 15,000 686 Climbing Aus ATC (RADAR)
Sat 02:47:11 AM -25.6617 152.7147 178° South 270 311 15,000  Level Aus ATC (RADAR)
Sat 02:47:41 AM -25.6982 152.7170 177° South 266 306 15,000  Level Aus ATC (RADAR)
Sat 02:48:16 AM -25.7401 152.7180 179° South 259 298 15,000  Level Aus ATC (RADAR)
Sat 02:48:51 AM -25.7813 152.7200 177° South 254 292 15,000  Level Aus ATC (RADAR)
Sat 02:49:31 AM -25.8281 152.7213 179° South 252 290 15,000  Level Aus ATC (RADAR)
Sat 02:49:56 AM -25.8565 152.7233 176° South 247 284 15,000  Level Aus ATC (RADAR)
Sat 02:50:30 AM -25.8970 152.7244 179° South 249 287 15,000  Level Aus ATC (RADAR)
Sat 02:51:10 AM -25.9430 152.7265 178° South 248 285 15,000  Level Aus ATC (RADAR)
Sat 02:51:45 AM -25.9828 152.7288 177° South 248 285 15,000  Level Aus ATC (RADAR)
Sat 02:52:20 AM -26.0237 152.7302 178° South 252 290 15,000  Level Aus ATC (RADAR)
Sat 02:52:50 AM -26.0586 152.7321 177° South 252 290 15,000  Level Aus ATC (RADAR)
Sat 02:53:25 AM -26.0999 152.7339 178° South 255 293 15,000  Level Aus ATC (RADAR)
Sat 02:54:00 AM -26.1415 152.7353 178° South 259 298 15,000  Level Aus ATC (RADAR)
Sat 02:54:45 AM -26.1949 152.7391 176° South 259 298 15,000  Level Aus ATC (RADAR)
Sat 02:55:10 AM -26.2248 152.7396 179° South 259 298 15,000  Level Aus ATC (RADAR)
Sat 02:55:50 AM -26.2734 152.7404 179° South 263 303 15,000  Level Aus ATC (RADAR)
Sat 02:56:30 AM -26.3206 152.7420 178° South 255 293 15,000  Level Aus ATC (RADAR)
Sat 02:57:05 AM -26.3610 152.7442 177° South 251 289 15,000  Level Aus ATC (RADAR)
Sat 02:57:35 AM -26.3954 152.7455 178° South 248 285 15,000  Level Aus ATC (RADAR)
Sat 02:58:10 AM -26.4364 152.7479 177° South 252 290 15,000  Level Aus ATC (RADAR)
Sat 02:58:44 AM -26.4777 152.7497 178° South 254 292 15,000  Level Aus ATC (RADAR)
Sat 02:59:29 AM -26.5312 152.7523 178° South 256 295 15,000 -480 Level Aus ATC (RADAR)
Sat 02:59:59 AM -26.5672 152.7545 177° South 259 298 14,400 -923 Descending Aus ATC (RADAR)
Sat 03:00:34 AM -26.6087 152.7558 178° South 256 295 14,000 -343 Descending Aus ATC (RADAR)
Sat 03:01:09 AM -26.6493 152.7570 178° South 250 288 14,000  Level Aus ATC (RADAR)
Sat 03:01:39 AM -26.6832 152.7598 176° South 245 282 14,000  Level Aus ATC (RADAR)
Sat 03:02:14 AM -26.7234 152.7609 179° South 245 282 14,000  Level Aus ATC (RADAR)
Sat 03:02:49 AM -26.7636 152.7628 178° South 248 285 14,000  Level Aus ATC (RADAR)
Sat 03:03:29 AM -26.7831 152.8069 116° Southeast 246 283 14,000 75 Level Aus ATC (RADAR)
Sat 03:04:09 AM -26.7440 152.8348 33° Northeast 262 302 14,100  Climbing Aus ATC (RADAR)
Sat 03:04:54 AM -26.6987 152.8160 340° North 231 266 14,000 -86 Descending Aus ATC (RADAR)
Sat 03:05:19 AM -26.6753 152.8020 332° Northwest 228 262 14,000  Level Aus ATC (RADAR)
Sat 03:05:54 AM -26.6425 152.7825 332° Northwest 227 261 14,000 -300 Level Aus ATC (RADAR)
Sat 03:06:39 AM -26.6283 152.7369 289° West 226 260 13,600 -560 Descending Aus ATC (RADAR)
Sat 03:07:09 AM -26.6559 152.7155 215° Southwest 244 281 13,300 -462 Descending Aus ATC (RADAR)
Sat 03:07:44 AM -26.6941 152.7322 159° South 250 288 13,100 -469 Descending Aus ATC (RADAR)
Sat 03:08:13 AM -26.7254 152.7478 156° South 245 282 12,800 -844 Descending Aus ATC (RADAR)
Sat 03:08:48 AM -26.7600 152.7680 152° Southeast 238 274 12,200 -1,125 Descending Aus ATC (RADAR)
Sat 03:09:33 AM -26.8029 152.7949 151° Southeast 231 266 11,300 -1,125 Descending Aus ATC (RADAR)
Sat 03:10:08 AM -26.8354 152.8153 151° Southeast 228 262 10,700 -1,114 Descending Aus ATC (RADAR)
Sat 03:10:43 AM -26.8688 152.8359 151° Southeast 231 266 10,000 -1,200 Descending Aus ATC (RADAR)
Sat 03:11:18 AM -26.9019 152.8558 152° Southeast 228 262 9,300 -1,108 Descending Aus ATC (RADAR)
Sat 03:11:48 AM -26.9303 152.8727 152° Southeast 229 264 8,800 -1,108 Descending Aus ATC (RADAR)
Sat 03:12:23 AM -26.9662 152.8943 152° Southeast 247 284 8,100 -1,200 Descending Aus ATC (RADAR)
Sat 03:12:58 AM -27.0046 152.9161 153° Southeast 259 298 7,400 -1,286 Descending Aus ATC (RADAR)
Sat 03:13:33 AM -27.0419 152.9393 151° Southeast 258 297 6,600 -1,286 Descending Aus ATC (RADAR)
Sat 03:14:08 AM -27.0790 152.9649 148° Southeast 264 304 5,900 -988 Descending Aus ATC (RADAR)
Sat 03:14:58 AM -27.1338 152.9981 152° Southeast 262 302 5,200 -960 Descending Aus ATC (RADAR)
Sat 03:15:23 AM -27.1598 153.0123 154° Southeast 249 287 4,700 -1,100 Descending Aus ATC (RADAR)
Sat 03:15:58 AM -27.1917 153.0312 152° Southeast 221 254 4,100 -960 Descending Aus ATC (RADAR)
Sat 03:16:38 AM -27.2252 153.0539 149° Southeast 207 238 3,500 -1,015 Descending Aus ATC (RADAR)
Sat 03:17:03 AM -27.2472 153.0668 153° Southeast 210 242 3,000 -1,100 Descending Aus ATC (RADAR)
Sat 03:17:38 AM -27.2816 153.0551 197° South 218 251 2,400 -811 Descending Aus ATC (RADAR)
Sat 03:18:17 AM -27.3176 153.0396 201° Southwest 211 243 2,000 -324 Descending Aus ATC (RADAR)
Sat 03:18:52 AM -27.3531 153.0294 194° South 226 260 2,000  Level Aus ATC (RADAR)
Sat 03:19:27 AM -27.3871 153.0237 188° South 211 243 2,000 -212 Level Aus ATC (RADAR)
Sat 03:20:17 AM -27.4311 153.0305 172° South 195 224 1,700 -400 Descending Aus ATC (RADAR)
Sat 03:20:42 AM -27.4415 153.0499 121° Southeast 168 193 1,500 -400 Descending Aus ATC (RADAR)
Sat 03:21:17 AM -27.4525 153.0760 115° Southeast 152 175 1,300 -480 Descending Aus ATC (RADAR)
Sat 03:21:57 AM -27.4412 153.0987 61° Northeast 132 152 900 -640 Descending Aus ATC (RADAR)
Sat 03:22:32 AM -27.4262 153.1054 21° North 106 122 500 -600 Descending Aus ATC (RADAR)
Sat 03:23:07 AM -27.4109 153.1143 28° Northeast 107 123 200 -514 Descending Aus ATC (RADAR)

Login

Don't have an account? Register now (free) for customized features, flight alerts, and more!